Time;durP1;ratioP1;P1;durP2;ratioP2;P2;SDS_P1;SDS_P2;PMS_P1;PMS_P2;Temp;Humidity;BMP_temperature;BMP_pressure;BME280_temperature;BME280_humidity;BME280_pressure;Samples;Min_cycle;Max_cycle;Signal;HPM_P1;HPM_P2
2021/07/20 00:02:53;;;;;;;6.07;3.03;;;16.60;68.00;;;;;;4987222;28;20043;-77
2021/07/20 00:05:23;;;;;;;7.18;3.50;;;16.60;68.00;;;;;;4958051;28;20423;-77
2021/07/20 00:07:53;;;;;;;9.90;3.38;;;16.60;68.20;;;;;;4968661;28;20377;-77
2021/07/20 00:10:33;;;;;;;8.25;3.78;;;16.50;68.20;;;;;;4970765;28;20047;-77
2021/07/20 00:13:01;;;;;;;8.20;3.72;;;16.50;68.50;;;;;;4972542;28;20067;-77
2021/07/20 00:15:28;;;;;;;7.85;4.18;;;16.50;68.60;;;;;;4974358;28;20067;-75
2021/07/20 00:17:58;;;;;;;8.00;3.80;;;16.40;68.70;;;;;;4972300;28;20050;-75
2021/07/20 00:20:27;;;;;;;9.13;3.65;;;16.40;68.80;;;;;;4974194;28;20508;-74
2021/07/20 00:22:55;;;;;;;7.72;3.10;;;16.40;69.00;;;;;;4989664;28;20038;-75
2021/07/20 00:25:22;;;;;;;8.43;3.40;;;16.40;69.00;;;;;;4973187;28;20075;-74
2021/07/20 00:27:49;;;;;;;8.30;3.33;;;16.40;69.10;;;;;;4973483;28;20047;-74
2021/07/20 00:30:16;;;;;;;6.40;3.15;;;16.30;69.20;;;;;;4968373;28;20125;-74
2021/07/20 00:32:43;;;;;;;7.32;3.67;;;16.30;69.30;;;;;;4969038;28;20059;-74
2021/07/20 00:35:12;;;;;;;7.45;3.85;;;16.30;69.40;;;;;;5003704;28;20054;-75
2021/07/20 00:37:40;;;;;;;6.82;3.17;;;16.20;69.50;;;;;;4973611;28;20597;-74
2021/07/20 00:40:13;;;;;;;7.55;3.15;;;16.20;69.60;;;;;;4973789;28;20038;-74
2021/07/20 00:42:41;;;;;;;8.38;4.22;;;16.20;69.60;;;;;;5000115;28;20157;-75
2021/07/20 00:45:12;;;;;;;6.25;3.15;;;16.20;69.80;;;;;;4971306;28;20420;-75
2021/07/20 00:47:39;;;;;;;7.80;2.83;;;16.20;69.80;;;;;;4983090;28;20134;-74
2021/07/20 00:50:11;;;;;;;7.30;3.80;;;16.20;69.90;;;;;;4972734;28;20042;-74
2021/07/20 00:52:41;;;;;;;7.80;3.85;;;16.20;70.00;;;;;;4971059;28;20050;-74
2021/07/20 00:55:10;;;;;;;7.93;3.42;;;16.10;70.60;;;;;;4970931;28;20101;-74
2021/07/20 00:57:40;;;;;;;7.38;3.00;;;16.10;70.20;;;;;;4972789;28;20042;-74
2021/07/20 01:00:10;;;;;;;7.70;3.10;;;16.00;70.20;;;;;;4971418;28;20046;-75
2021/07/20 01:02:37;;;;;;;7.50;3.05;;;16.10;70.40;;;;;;4988772;28;20039;-75
2021/07/20 01:05:12;;;;;;;9.18;3.35;;;16.00;70.40;;;;;;4971789;28;20102;-74
2021/07/20 01:07:43;;;;;;;7.60;2.95;;;16.00;70.50;;;;;;4986379;28;20047;-75
2021/07/20 01:10:12;;;;;;;8.63;3.55;;;16.00;70.70;;;;;;5002056;28;20932;-74
2021/07/20 01:12:41;;;;;;;7.28;3.47;;;16.00;70.80;;;;;;5003856;28;20074;-75
2021/07/20 01:15:11;;;;;;;7.82;3.13;;;16.00;70.90;;;;;;4973061;28;20039;-74
2021/07/20 01:17:40;;;;;;;7.57;3.55;;;15.90;70.90;;;;;;4957016;28;20054;-74
2021/07/20 01:20:12;;;;;;;6.57;2.70;;;15.90;71.00;;;;;;4972009;28;20073;-74
2021/07/20 01:22:41;;;;;;;8.85;3.58;;;15.90;71.10;;;;;;5004081;28;20533;-74
2021/07/20 01:25:12;;;;;;;6.47;3.25;;;15.90;71.20;;;;;;4980850;28;20044;-74
2021/07/20 01:27:51;;;;;;;8.02;3.38;;;15.90;71.20;;;;;;4972486;28;20051;-74
2021/07/20 01:30:19;;;;;;;7.40;3.17;;;15.90;71.30;;;;;;4963392;28;20043;-74
2021/07/20 01:32:52;;;;;;;7.78;3.45;;;15.90;71.40;;;;;;4986178;28;20074;-74
2021/07/20 01:35:19;;;;;;;6.90;3.13;;;15.80;71.50;;;;;;4972585;28;20054;-74
2021/07/20 01:37:48;;;;;;;6.15;2.78;;;15.80;71.50;;;;;;4971214;28;20074;-74
2021/07/20 01:40:23;;;;;;;6.22;2.95;;;15.80;71.60;;;;;;4982772;28;20451;-74
2021/07/20 01:42:53;;;;;;;7.63;3.17;;;15.70;71.60;;;;;;4971919;28;20042;-74
2021/07/20 01:45:27;;;;;;;7.72;3.38;;;15.70;71.70;;;;;;4949756;28;20071;-74
2021/07/20 01:47:55;;;;;;;8.30;3.92;;;15.70;71.80;;;;;;4967980;28;20046;-74
2021/07/20 01:50:23;;;;;;;8.60;2.88;;;15.70;71.90;;;;;;4981620;28;20495;-74
2021/07/20 01:52:53;;;;;;;7.32;3.38;;;15.70;72.60;;;;;;4958100;28;20050;-74
2021/07/20 01:55:24;;;;;;;6.45;3.33;;;15.70;72.10;;;;;;4995725;28;20413;-74
2021/07/20 01:57:53;;;;;;;6.75;2.80;;;15.70;72.10;;;;;;4970064;28;20070;-74
2021/07/20 02:00:35;;;;;;;6.07;3.00;;;15.70;72.20;;;;;;4967151;28;20370;-74
2021/07/20 02:09:24;;;;;;;7.32;2.92;;;15.60;72.30;;;;;;4926926;29;20123;-74
2021/07/20 02:11:56;;;;;;;6.95;3.33;;;15.60;72.40;;;;;;4948963;28;20443;-74
2021/07/20 02:14:45;;;;;;;7.53;3.33;;;15.50;72.50;;;;;;4957824;28;20137;-75
2021/07/20 02:17:33;;;;;;;8.00;3.30;;;15.50;72.60;;;;;;4971458;28;20041;-74
2021/07/20 02:20:05;;;;;;;8.23;3.15;;;15.50;72.60;;;;;;4984399;28;20071;-74
2021/07/20 02:22:54;;;;;;;9.35;4.00;;;15.50;72.60;;;;;;4975610;28;20047;-74
2021/07/20 02:25:28;;;;;;;9.45;3.50;;;15.50;72.60;;;;;;4969385;28;20074;-74
2021/07/20 02:28:10;;;;;;;7.25;3.47;;;15.50;72.50;;;;;;4971993;28;20825;-74
2021/07/20 02:30:43;;;;;;;9.50;4.13;;;15.50;72.50;;;;;;4985326;28;20070;-74
2021/07/20 02:33:13;;;;;;;7.55;4.03;;;15.50;72.80;;;;;;4970449;28;20102;-74
2021/07/20 02:35:41;;;;;;;7.53;3.47;;;15.50;72.70;;;;;;4943823;28;20145;-74
2021/07/20 02:38:24;;;;;;;11.35;4.53;;;15.50;72.90;;;;;;4942362;28;20125;-74
2021/07/20 02:40:52;;;;;;;7.63;3.88;;;15.40;72.80;;;;;;4969705;28;20043;-74
2021/07/20 02:43:20;;;;;;;10.70;4.70;;;15.50;72.90;;;;;;4973232;28;20054;-74
2021/07/20 02:45:49;;;;;;;8.32;3.90;;;15.40;72.90;;;;;;4963663;28;20073;-74
2021/07/20 02:48:17;;;;;;;9.43;4.13;;;15.40;72.90;;;;;;5002921;28;20049;-74
2021/07/20 02:50:45;;;;;;;8.23;3.65;;;15.40;72.90;;;;;;4970019;28;20098;-74
2021/07/20 02:53:38;;;;;;;9.77;4.47;;;15.40;73.00;;;;;;4976875;28;20050;-74
2021/07/20 02:56:09;;;;;;;10.98;3.45;;;15.40;73.00;;;;;;5001807;28;20081;-75
2021/07/20 02:58:50;;;;;;;9.73;3.50;;;15.40;73.10;;;;;;4970677;28;20038;-74
2021/07/20 03:01:31;;;;;;;8.80;3.83;;;15.40;73.00;;;;;;4967480;28;20399;-74
2021/07/20 03:04:00;;;;;;;6.65;3.60;;;15.30;73.00;;;;;;4986670;28;20463;-73
2021/07/20 03:06:31;;;;;;;8.15;3.35;;;15.30;73.10;;;;;;4984258;28;20408;-74
2021/07/20 03:08:59;;;;;;;7.40;3.53;;;15.30;73.20;;;;;;4953360;28;20062;-74
2021/07/20 03:12:00;;;;;;;8.57;3.15;;;15.30;73.10;;;;;;4977654;28;20504;-74
2021/07/20 03:14:32;;;;;;;8.38;3.58;;;15.30;73.10;;;;;;4972558;28;20046;-74
2021/07/20 03:17:24;;;;;;;8.32;4.03;;;15.30;73.20;;;;;;4966193;28;20047;-74
2021/07/20 03:19:53;;;;;;;7.57;3.65;;;15.20;73.20;;;;;;4973246;28;20035;-74
2021/07/20 03:22:28;;;;;;;8.52;3.42;;;15.20;73.30;;;;;;4961620;28;20039;-74
2021/07/20 03:25:01;;;;;;;7.53;3.35;;;15.20;73.30;;;;;;4985726;28;20038;-74
2021/07/20 03:27:32;;;;;;;7.15;3.38;;;15.20;73.40;;;;;;4959810;28;20794;-74
2021/07/20 03:30:06;;;;;;;7.53;3.25;;;15.20;73.30;;;;;;4959485;28;20048;-74
2021/07/20 03:32:37;;;;;;;6.40;2.90;;;15.20;73.30;;;;;;4983111;28;20083;-74
2021/07/20 03:35:06;;;;;;;7.95;3.17;;;15.20;73.30;;;;;;4970446;28;20145;-74
2021/07/20 03:37:35;;;;;;;7.72;3.42;;;15.20;73.40;;;;;;5001415;28;20133;-74
2021/07/20 03:40:03;;;;;;;7.30;2.95;;;15.20;73.50;;;;;;4986304;28;20089;-74
2021/07/20 03:42:35;;;;;;;7.20;2.88;;;15.20;73.50;;;;;;4970100;28;20600;-74
2021/07/20 03:45:04;;;;;;;9.60;3.33;;;15.10;73.40;;;;;;4950508;28;20057;-74
2021/07/20 03:47:32;;;;;;;6.90;3.28;;;15.10;73.50;;;;;;4971848;28;20137;-74
2021/07/20 03:50:05;;;;;;;7.25;3.28;;;15.10;73.60;;;;;;4951385;28;20050;-74
2021/07/20 03:52:34;;;;;;;5.85;2.70;;;15.00;73.60;;;;;;4989137;28;20050;-74
2021/07/20 03:55:03;;;;;;;7.63;2.97;;;15.00;73.80;;;;;;4987170;28;20050;-74
2021/07/20 03:57:31;;;;;;;7.38;2.95;;;15.00;73.80;;;;;;4988023;28;20140;-74
2021/07/20 04:00:01;;;;;;;7.53;2.75;;;15.00;73.90;;;;;;4972247;28;20043;-74
2021/07/20 04:05:32;;;;;;;7.20;3.25;;;14.90;74.00;;;;;;4971861;28;20058;-74
2021/07/20 04:07:59;;;;;;;8.52;3.00;;;14.90;74.10;;;;;;4971813;28;20055;-74
2021/07/20 04:10:42;;;;;;;5.88;2.80;;;14.80;74.10;;;;;;4970104;28;20054;-74
2021/07/20 04:13:20;;;;;;;7.43;2.78;;;14.80;74.10;;;;;;4973739;28;20487;-74
2021/07/20 04:16:08;;;;;;;10.07;2.75;;;14.80;74.20;;;;;;4987083;28;20050;-74
2021/07/20 04:18:38;;;;;;;7.05;3.03;;;14.80;74.20;;;;;;4971951;28;20043;-74
2021/07/20 04:21:08;;;;;;;8.10;2.78;;;14.80;74.20;;;;;;4973156;28;20134;-74
2021/07/20 04:23:37;;;;;;;5.97;2.45;;;14.90;74.30;;;;;;4973154;28;20137;-73
2021/07/20 04:26:13;;;;;;;9.05;3.47;;;14.90;74.20;;;;;;4966216;28;20077;-73
2021/07/20 04:28:42;;;;;;;5.85;2.55;;;14.90;74.30;;;;;;4988359;28;20055;-73
2021/07/20 04:31:17;;;;;;;8.02;2.92;;;14.90;74.20;;;;;;4971843;28;20091;-74
2021/07/20 04:33:46;;;;;;;6.35;2.83;;;14.90;74.10;;;;;;4987868;28;20059;-74
2021/07/20 04:36:52;;;;;;;7.10;2.63;;;14.90;74.10;;;;;;4973557;28;20050;-74
2021/07/20 04:39:48;;;;;;;5.20;2.30;;;14.90;74.10;;;;;;4968267;28;20051;-74
2021/07/20 04:42:18;;;;;;;6.68;2.95;;;15.00;74.00;;;;;;4998185;28;20050;-74
2021/07/20 04:44:46;;;;;;;6.32;3.17;;;15.00;74.00;;;;;;4988055;28;20066;-74
2021/07/20 04:47:22;;;;;;;6.60;2.83;;;15.00;73.90;;;;;;4988883;28;20047;-74
2021/07/20 04:49:54;;;;;;;6.25;2.55;;;15.10;73.80;;;;;;4957178;28;20053;-74
2021/07/20 04:52:21;;;;;;;6.40;2.65;;;15.10;73.70;;;;;;4973918;28;20074;-74
2021/07/20 04:54:49;;;;;;;5.57;2.53;;;15.20;73.80;;;;;;4971364;28;20050;-73
2021/07/20 04:57:17;;;;;;;6.10;2.63;;;15.30;73.60;;;;;;5001569;28;20492;-74
2021/07/20 04:59:44;;;;;;;6.70;2.42;;;15.30;73.40;;;;;;4987450;28;20137;-74
2021/07/20 05:02:17;;;;;;;6.50;1.77;;;15.40;73.20;;;;;;4954603;28;20067;-74
2021/07/20 05:04:50;;;;;;;5.88;2.75;;;15.40;73.00;;;;;;4976236;28;20043;-74
2021/07/20 05:07:20;;;;;;;6.85;2.97;;;15.50;73.10;;;;;;4957673;28;20092;-74
2021/07/20 05:09:57;;;;;;;6.32;2.60;;;15.40;73.10;;;;;;4970842;28;20051;-74
2021/07/20 05:12:26;;;;;;;6.38;2.78;;;15.50;73.10;;;;;;4960955;28;20057;-74
2021/07/20 05:15:05;;;;;;;6.30;2.38;;;15.50;73.00;;;;;;4976025;28;20054;-74
2021/07/20 05:17:37;;;;;;;7.05;2.70;;;15.50;73.00;;;;;;4987841;28;20039;-76
2021/07/20 05:20:07;;;;;;;7.22;2.85;;;15.50;72.90;;;;;;5003352;28;20134;-76
2021/07/20 05:23:02;;;;;;;7.25;2.85;;;15.60;72.90;;;;;;4974098;28;20047;-76
2021/07/20 05:25:29;;;;;;;7.03;2.90;;;15.60;72.60;;;;;;4987432;28;20487;-77
2021/07/20 05:27:58;;;;;;;6.65;2.80;;;15.60;72.50;;;;;;5005209;28;20046;-76
2021/07/20 05:30:29;;;;;;;6.97;2.92;;;15.70;72.50;;;;;;4986521;28;20161;-76
2021/07/20 05:32:58;;;;;;;5.95;2.97;;;15.80;72.40;;;;;;4988739;28;20101;-76
2021/07/20 05:36:03;;;;;;;7.05;3.40;;;15.80;72.20;;;;;;4972602;28;20129;-76
2021/07/20 05:38:32;;;;;;;5.90;2.33;;;15.80;72.10;;;;;;4987947;28;20406;-76
2021/07/20 05:41:19;;;;;;;6.90;2.75;;;15.90;72.00;;;;;;4973764;28;20043;-77
2021/07/20 05:43:49;;;;;;;5.93;2.53;;;15.90;71.90;;;;;;4971537;28;20046;-76
2021/07/20 05:46:18;;;;;;;6.38;3.10;;;16.00;71.80;;;;;;4971851;28;20054;-76
2021/07/20 05:48:48;;;;;;;7.10;2.80;;;16.10;71.60;;;;;;4988430;28;20047;-77
2021/07/20 05:51:18;;;;;;;5.88;2.72;;;16.10;71.40;;;;;;4970743;28;20031;-76
2021/07/20 05:54:09;;;;;;;5.65;2.70;;;16.20;71.30;;;;;;4969757;28;20046;-76
2021/07/20 05:56:57;;;;;;;5.60;2.20;;;16.30;71.10;;;;;;4970703;28;20046;-76
2021/07/20 05:59:44;;;;;;;6.70;2.50;;;16.50;70.90;;;;;;4971890;28;20070;-76
2021/07/20 06:02:19;;;;;;;4.35;2.17;;;16.60;70.60;;;;;;4990601;28;20090;-77
2021/07/20 06:04:49;;;;;;;6.60;2.47;;;16.70;70.40;;;;;;4974416;28;20483;-77
2021/07/20 06:07:21;;;;;;;5.65;1.92;;;16.80;70.30;;;;;;4972465;28;20125;-77
2021/07/20 06:09:49;;;;;;;4.50;1.83;;;16.90;70.20;;;;;;4982703;28;20058;-76
2021/07/20 06:12:19;;;;;;;9.88;2.70;;;16.90;70.00;;;;;;4972817;28;20051;-77
2021/07/20 06:14:47;;;;;;;5.70;2.10;;;17.00;69.90;;;;;;4987149;28;20058;-77
2021/07/20 06:17:14;;;;;;;5.00;1.85;;;17.10;69.80;;;;;;4967503;28;20105;-76
2021/07/20 06:19:42;;;;;;;3.95;1.60;;;17.20;69.80;;;;;;4971897;28;20035;-76
2021/07/20 06:22:10;;;;;;;5.70;1.95;;;17.30;69.60;;;;;;4969454;28;20043;-77
2021/07/20 06:24:59;;;;;;;5.82;2.83;;;17.30;69.40;;;;;;4970762;28;20047;-77
2021/07/20 06:27:27;;;;;;;7.43;2.85;;;17.50;69.30;;;;;;4971060;28;20042;-77
2021/07/20 06:29:58;;;;;;;5.47;2.13;;;17.50;69.00;;;;;;4972383;28;20062;-77
2021/07/20 06:32:26;;;;;;;5.18;2.22;;;17.60;68.90;;;;;;5002726;28;20051;-76
2021/07/20 06:34:56;;;;;;;5.35;2.38;;;17.70;68.70;;;;;;4972702;28;20454;-77
2021/07/20 06:37:25;;;;;;;5.85;2.58;;;17.80;68.50;;;;;;4971894;28;20035;-77
2021/07/20 06:39:53;;;;;;;6.18;2.78;;;17.90;68.30;;;;;;4979493;28;20042;-76
2021/07/20 06:42:20;;;;;;;6.20;2.70;;;17.90;68.10;;;;;;4970772;28;20050;-77
2021/07/20 06:44:49;;;;;;;5.22;2.58;;;18.00;68.00;;;;;;4986712;28;20051;-76
2021/07/20 06:47:18;;;;;;;6.10;2.85;;;18.00;67.70;;;;;;4972950;28;20041;-77
2021/07/20 06:49:48;;;;;;;7.57;2.47;;;18.10;67.60;;;;;;4987105;28;20086;-77
2021/07/20 06:52:16;;;;;;;6.43;2.90;;;18.10;67.40;;;;;;4971920;28;20042;-77
2021/07/20 06:54:44;;;;;;;4.82;2.28;;;18.10;67.30;;;;;;4983975;28;20491;-76
2021/07/20 06:57:15;;;;;;;5.32;2.30;;;18.30;67.20;;;;;;4999360;28;20439;-77
2021/07/20 06:59:43;;;;;;;5.47;2.47;;;18.30;66.90;;;;;;4972583;28;20062;-77
2021/07/20 07:02:17;;;;;;;5.20;2.40;;;18.40;66.70;;;;;;4977664;28;20127;-77
2021/07/20 07:04:58;;;;;;;4.95;1.90;;;18.40;66.60;;;;;;4986580;28;20046;-76
2021/07/20 07:07:27;;;;;;;5.13;2.20;;;18.50;66.40;;;;;;4971360;28;20039;-77
2021/07/20 07:09:56;;;;;;;5.55;2.53;;;18.60;66.20;;;;;;4970197;28;20125;-77
2021/07/20 07:12:24;;;;;;;6.35;2.60;;;18.60;66.10;;;;;;4970707;28;20057;-77
2021/07/20 07:14:53;;;;;;;5.43;2.85;;;18.70;66.00;;;;;;4984889;28;20043;-77
2021/07/20 07:17:21;;;;;;;7.43;2.70;;;18.80;65.80;;;;;;4986045;28;20047;-77
2021/07/20 07:19:51;;;;;;;4.88;2.60;;;18.80;65.50;;;;;;4980296;28;20051;-77
2021/07/20 07:22:21;;;;;;;6.10;2.90;;;18.80;65.10;;;;;;4973465;28;20038;-77
2021/07/20 07:24:49;;;;;;;6.78;3.25;;;18.90;64.90;;;;;;4990504;28;20387;-77
2021/07/20 07:27:19;;;;;;;4.85;2.35;;;18.90;64.90;;;;;;5005343;28;20101;-77
2021/07/20 07:29:48;;;;;;;4.80;2.25;;;19.00;64.80;;;;;;4989143;28;20559;-77
2021/07/20 07:32:17;;;;;;;4.50;2.08;;;19.10;64.60;;;;;;4972109;28;20138;-77
2021/07/20 07:34:44;;;;;;;5.70;2.72;;;19.20;64.40;;;;;;4977705;28;20490;-77
2021/07/20 07:37:12;;;;;;;5.50;2.50;;;19.30;63.90;;;;;;4998869;28;20641;-77
2021/07/20 07:39:41;;;;;;;5.82;3.03;;;19.40;63.70;;;;;;4977770;28;20043;-77
2021/07/20 07:42:09;;;;;;;4.95;2.33;;;19.50;63.40;;;;;;4992482;28;20043;-77
2021/07/20 07:44:36;;;;;;;4.85;2.58;;;19.60;63.20;;;;;;4966906;28;20492;-77
2021/07/20 07:47:04;;;;;;;5.43;2.58;;;19.70;63.00;;;;;;5008055;28;20565;-77
2021/07/20 07:49:34;;;;;;;5.18;1.95;;;19.70;62.80;;;;;;4989156;28;20047;-76
2021/07/20 07:52:02;;;;;;;4.47;2.03;;;19.80;62.70;;;;;;4959283;28;20062;-76
2021/07/20 07:54:29;;;;;;;5.55;2.50;;;19.90;62.40;;;;;;4973585;28;20046;-76
2021/07/20 07:56:57;;;;;;;6.57;2.67;;;20.00;62.00;;;;;;4975633;28;20130;-77
2021/07/20 07:59:26;;;;;;;4.82;2.50;;;20.10;61.80;;;;;;4976323;28;20118;-77
2021/07/20 08:01:55;;;;;;;4.78;2.65;;;20.10;61.70;;;;;;4977373;28;20046;-76
2021/07/20 08:04:25;;;;;;;5.38;2.45;;;20.20;61.50;;;;;;4992010;28;20041;-76
2021/07/20 08:06:54;;;;;;;4.35;2.15;;;20.20;61.30;;;;;;4992040;28;20046;-76
2021/07/20 08:09:24;;;;;;;5.32;2.38;;;20.20;61.00;;;;;;4976110;28;20089;-77
2021/07/20 08:11:54;;;;;;;5.82;2.53;;;20.30;60.80;;;;;;4999115;28;20097;-77
2021/07/20 08:14:21;;;;;;;4.68;2.13;;;20.40;60.70;;;;;;4977861;28;20043;-77
2021/07/20 08:16:52;;;;;;;4.82;2.20;;;20.40;60.50;;;;;;4972898;28;20067;-76
2021/07/20 08:19:20;;;;;;;5.15;2.17;;;20.50;60.40;;;;;;4978133;28;20121;-77
2021/07/20 08:21:50;;;;;;;5.43;2.70;;;20.60;60.10;;;;;;4960298;28;20062;-77
2021/07/20 08:24:18;;;;;;;5.85;2.28;;;20.70;60.00;;;;;;5008144;28;20035;-77
2021/07/20 08:27:25;;;;;;;5.55;2.67;;;20.80;59.90;;;;;;4978444;28;20525;-77
2021/07/20 08:29:56;;;;;;;5.00;2.08;;;20.90;59.70;;;;;;4940117;29;20052;-78
2021/07/20 08:32:25;;;;;;;5.63;2.67;;;21.00;59.60;;;;;;4928090;29;20064;-77
2021/07/20 08:35:00;;;;;;;5.60;2.67;;;21.10;59.40;;;;;;4940808;28;20082;-77
2021/07/20 08:37:50;;;;;;;4.38;2.13;;;21.20;58.90;;;;;;4974028;28;20503;-77
2021/07/20 08:40:26;;;;;;;6.13;2.28;;;21.20;58.90;;;;;;4985442;28;20113;-77
2021/07/20 08:43:13;;;;;;;5.43;2.53;;;21.20;58.80;;;;;;4987756;28;20054;-76
2021/07/20 08:46:15;;;;;;;4.35;2.10;;;21.10;58.60;;;;;;4972151;28;20046;-75
2021/07/20 08:49:30;;;;;;;5.72;2.67;;;20.80;58.90;;;;;;4968923;28;20129;-76
2021/07/20 08:52:14;;;;;;;6.72;3.60;;;20.90;58.80;;;;;;4920464;28;20052;-76
2021/07/20 08:54:55;;;;;;;7.18;3.00;;;20.90;58.40;;;;;;4973986;28;20101;-76
2021/07/20 08:57:47;;;;;;;5.40;3.08;;;21.10;58.20;;;;;;4968763;28;20066;-76
2021/07/20 09:00:16;;;;;;;;;;;21.30;57.80;;;;;;4992745;28;20053;-76
2021/07/20 09:03:02;;;;;;;5.35;2.42;;;21.50;57.90;;;;;;4973964;28;19925;-76
2021/07/20 09:05:50;;;;;;;5.65;2.47;;;21.60;57.50;;;;;;4988984;28;20042;-76
2021/07/20 09:08:24;;;;;;;5.97;2.95;;;21.70;57.30;;;;;;4970788;28;20057;-75
2021/07/20 09:11:02;;;;;;;4.13;2.10;;;21.70;57.10;;;;;;4980450;28;20487;-75
2021/07/20 09:13:37;;;;;;;5.03;2.10;;;21.80;57.10;;;;;;4968238;28;20061;-76
2021/07/20 09:16:25;;;;;;;5.55;2.42;;;21.90;57.00;;;;;;4972476;28;20047;-75
2021/07/20 09:19:07;;;;;;;6.88;3.15;;;22.00;56.60;;;;;;4973483;28;20034;-76
2021/07/20 09:21:39;;;;;;;3.40;1.63;;;22.20;56.40;;;;;;4969442;28;20112;-76
2021/07/20 09:24:18;;;;;;;4.45;2.10;;;22.30;56.30;;;;;;4971955;28;20047;-76
2021/07/20 09:26:54;;;;;;;5.90;2.50;;;22.40;56.10;;;;;;5004928;28;20731;-75
2021/07/20 09:29:26;;;;;;;4.65;2.58;;;22.50;55.90;;;;;;4989153;28;20053;-78
2021/07/20 09:32:07;;;;;;;4.80;2.55;;;22.60;55.80;;;;;;4974508;28;20047;-78
2021/07/20 09:34:53;;;;;;;4.45;2.08;;;22.80;55.60;;;;;;4975960;28;20089;-78
2021/07/20 09:37:40;;;;;;;4.50;1.95;;;23.00;55.30;;;;;;4980320;28;20058;-77
2021/07/20 09:40:41;;;;;;;4.70;2.17;;;23.10;55.10;;;;;;4995320;28;20039;-78
2021/07/20 09:43:19;;;;;;;5.28;2.65;;;23.30;55.00;;;;;;4973780;28;20048;-78
2021/07/20 09:45:53;;;;;;;5.72;2.75;;;23.30;54.70;;;;;;4977691;28;20044;-78
2021/07/20 09:48:28;;;;;;;5.65;2.65;;;23.50;54.40;;;;;;4982983;28;20089;-78
2021/07/20 09:51:07;;;;;;;5.40;2.47;;;23.60;54.20;;;;;;4988481;28;20070;-78
2021/07/20 09:53:53;;;;;;;4.70;2.28;;;23.70;53.90;;;;;;4975946;28;20042;-78
2021/07/20 09:56:35;;;;;;;5.72;2.83;;;23.70;53.70;;;;;;4984612;28;20047;-78
2021/07/20 09:59:26;;;;;;;5.07;2.30;;;23.70;53.60;;;;;;4988213;28;20042;-78
2021/07/20 10:02:00;;;;;;;4.70;2.13;;;23.70;53.60;;;;;;4985367;28;20504;-78
2021/07/20 10:04:47;;;;;;;4.70;2.30;;;23.70;53.50;;;;;;5007736;28;20043;-78
2021/07/20 10:07:25;;;;;;;6.05;2.85;;;23.80;53.30;;;;;;4984553;28;20526;-78
2021/07/20 10:09:54;;;;;;;5.72;2.60;;;23.70;53.00;;;;;;4969686;28;20352;-78
2021/07/20 10:12:28;;;;;;;5.85;2.50;;;23.70;53.20;;;;;;4988655;28;20039;-78
2021/07/20 10:14:58;;;;;;;4.55;2.53;;;23.80;53.00;;;;;;4973049;28;20479;-77
2021/07/20 10:17:50;;;;;;;5.28;2.67;;;23.70;52.80;;;;;;4972485;28;20043;-77
2021/07/20 10:20:22;;;;;;;4.93;2.42;;;23.80;52.90;;;;;;4981332;28;20081;-78
2021/07/20 10:22:57;;;;;;;3.53;1.60;;;24.00;52.70;;;;;;4975282;28;20042;-78
2021/07/20 10:25:43;;;;;;;4.68;2.22;;;24.10;52.50;;;;;;4975113;28;20055;-78
2021/07/20 10:28:41;;;;;;;4.97;2.38;;;24.30;52.20;;;;;;4961603;28;20043;-78
2021/07/20 10:31:16;;;;;;;5.15;2.58;;;24.40;51.90;;;;;;4966831;28;20046;-79
2021/07/20 10:33:47;;;;;;;3.78;2.08;;;24.30;51.90;;;;;;4998757;28;20134;-78
2021/07/20 10:36:32;;;;;;;5.70;2.53;;;24.30;51.90;;;;;;4972642;28;20411;-77
2021/07/20 10:39:10;;;;;;;5.57;2.58;;;24.20;51.80;;;;;;5005470;28;20051;-77
2021/07/20 10:41:44;;;;;;;3.83;2.00;;;24.00;52.00;;;;;;4972368;28;20041;-77
2021/07/20 10:44:19;;;;;;;4.28;2.40;;;23.90;52.30;;;;;;4971356;28;20057;-80
2021/07/20 10:46:52;;;;;;;5.70;2.72;;;24.00;52.10;;;;;;4972441;28;20447;-77
2021/07/20 10:49:28;;;;;;;4.35;2.08;;;24.00;51.90;;;;;;4969010;28;20443;-76
2021/07/20 10:52:02;;;;;;;3.50;1.83;;;24.10;51.70;;;;;;4968211;28;20046;-74
2021/07/20 10:54:36;;;;;;;4.97;2.40;;;24.10;51.60;;;;;;4970907;28;20034;-76
2021/07/20 10:57:09;;;;;;;4.82;2.42;;;24.20;51.50;;;;;;4999787;28;20039;-74
2021/07/20 10:59:59;;;;;;;5.57;2.72;;;24.30;51.20;;;;;;4970875;28;20419;-75
2021/07/20 11:02:58;;;;;;;5.45;2.60;;;24.50;50.80;;;;;;4998006;28;20053;-80
2021/07/20 11:05:27;;;;;;;5.38;2.60;;;24.70;50.70;;;;;;4954417;28;20046;-80
2021/07/20 11:08:00;;;;;;;4.80;2.38;;;24.60;50.60;;;;;;4969724;28;20066;-80
2021/07/20 11:10:41;;;;;;;4.78;2.47;;;24.60;50.60;;;;;;4999944;28;20042;-81
2021/07/20 11:13:17;;;;;;;5.20;2.63;;;24.50;50.60;;;;;;5001099;28;20093;-82
2021/07/20 11:15:53;;;;;;;5.30;2.53;;;24.40;51.00;;;;;;4962133;28;20047;-81
2021/07/20 11:18:27;;;;;;;5.80;2.40;;;24.20;51.10;;;;;;4983167;28;20047;-79
2021/07/20 11:21:00;;;;;;;5.22;2.70;;;24.20;51.10;;;;;;4966152;28;20035;-79
2021/07/20 11:23:33;;;;;;;4.70;2.30;;;24.20;51.10;;;;;;4981772;28;20102;-79
2021/07/20 11:26:02;;;;;;;4.40;2.47;;;24.30;50.90;;;;;;4969972;28;20050;-80
2021/07/20 11:28:30;;;;;;;5.47;3.05;;;24.10;50.90;;;;;;4979896;28;20575;-81
2021/07/20 11:31:01;;;;;;;5.07;2.63;;;24.10;50.40;;;;;;4980689;28;20038;-79
2021/07/20 11:34:00;;;;;;;5.45;2.50;;;24.10;50.50;;;;;;4965905;28;20407;-82
2021/07/20 11:36:33;;;;;;;6.10;2.92;;;24.10;50.60;;;;;;4967905;28;20051;-79
2021/07/20 11:39:01;;;;;;;5.45;3.20;;;24.20;50.50;;;;;;4981820;28;20042;-82
2021/07/20 11:41:28;;;;;;;6.63;3.22;;;24.10;50.40;;;;;;4971612;28;20050;-82
2021/07/20 11:44:01;;;;;;;6.50;3.28;;;24.00;50.50;;;;;;4971521;28;20047;-81
2021/07/20 11:46:47;;;;;;;4.28;2.38;;;23.80;50.70;;;;;;4974275;28;20035;-79
2021/07/20 11:49:29;;;;;;;6.25;3.00;;;23.90;50.70;;;;;;4981612;28;20043;-79
2021/07/20 11:52:05;;;;;;;;;;;23.90;50.70;;;;;;4966336;28;20051;-81
2021/07/20 11:54:50;;;;;;;6.43;2.67;;;23.80;50.80;;;;;;5000637;28;19925;-81
2021/07/20 11:57:23;;;;;;;6.68;3.28;;;23.70;50.90;;;;;;4966337;28;20043;-81
2021/07/20 12:00:29;;;;;;;5.15;2.90;;;23.90;50.90;;;;;;4966964;28;20439;-81
2021/07/20 12:03:19;;;;;;;5.65;3.05;;;24.40;50.10;;;;;;4946424;28;20055;-83
2021/07/20 12:06:24;;;;;;;6.32;3.50;;;24.80;49.20;;;;;;4963484;28;20123;-82
2021/07/20 12:09:09;;;;;;;6.60;3.25;;;25.30;48.80;;;;;;4986396;28;20105;-82
2021/07/20 12:11:43;;;;;;;6.53;3.22;;;25.80;48.20;;;;;;4965656;28;20062;-80
2021/07/20 12:14:11;;;;;;;6.00;3.42;;;26.20;48.00;;;;;;4986204;28;20054;-79
2021/07/20 12:16:45;;;;;;;5.32;2.97;;;26.40;47.50;;;;;;4989756;28;20556;-82
2021/07/20 12:19:29;;;;;;;6.10;3.55;;;26.20;47.40;;;;;;4991646;28;20039;-84
2021/07/20 12:22:01;;;;;;;5.85;3.53;;;25.80;47.90;;;;;;4973521;28;20090;-82
2021/07/20 12:24:28;;;;;;;;;;;25.50;48.30;;;;;;4976561;28;20506;-82
2021/07/20 12:26:55;;;;;;;5.53;3.25;;;25.20;48.90;;;;;;4970391;28;19922;-81
2021/07/20 12:29:22;;;;;;;5.20;3.00;;;25.30;49.00;;;;;;4977773;28;20074;-79
2021/07/20 12:31:50;;;;;;;7.63;3.83;;;25.30;48.90;;;;;;4969107;28;20042;-83
2021/07/20 12:34:18;;;;;;;6.75;3.70;;;25.60;48.40;;;;;;4970078;28;20049;-82
2021/07/20 12:36:46;;;;;;;6.00;3.40;;;26.40;47.60;;;;;;4975126;28;20246;-82
2021/07/20 12:39:15;;;;;;;6.78;4.25;;;26.70;46.80;;;;;;4979960;28;20035;-83
2021/07/20 12:41:55;;;;;;;6.25;3.53;;;26.60;46.90;;;;;;4974980;28;20042;-80
2021/07/20 12:44:35;;;;;;;5.97;3.60;;;27.00;46.60;;;;;;4974393;28;20050;-82
2021/07/20 12:47:11;;;;;;;6.38;3.53;;;27.60;46.10;;;;;;4972079;28;20045;-81
2021/07/20 12:49:43;;;;;;;5.18;3.40;;;27.90;45.40;;;;;;4973934;28;20455;-82
2021/07/20 12:52:13;;;;;;;5.60;3.38;;;27.80;45.60;;;;;;4977644;28;20089;-82
2021/07/20 12:54:43;;;;;;;4.60;3.00;;;28.30;45.20;;;;;;4977704;28;20046;-82
2021/07/20 12:57:12;;;;;;;5.25;2.90;;;28.20;45.20;;;;;;4966996;28;20498;-82
2021/07/20 13:00:00;;;;;;;6.00;2.92;;;28.10;45.30;;;;;;4999377;28;20699;-83
2021/07/20 13:02:30;;;;;;;6.18;3.53;;;27.90;45.70;;;;;;4970493;28;20038;-83
2021/07/20 13:04:57;;;;;;;5.70;2.97;;;28.30;44.80;;;;;;4979996;28;20040;-80
2021/07/20 13:07:27;;;;;;;5.95;3.63;;;28.70;44.70;;;;;;5000061;28;20042;-82
2021/07/20 13:09:55;;;;;;;6.45;3.45;;;29.20;44.10;;;;;;4972002;28;20043;-81
2021/07/20 13:12:22;;;;;;;5.40;2.78;;;29.80;43.50;;;;;;4974110;28;20043;-84
2021/07/20 13:14:49;;;;;;;5.13;3.05;;;29.90;42.90;;;;;;4966698;28;20058;-81
2021/07/20 13:17:21;;;;;;;6.22;3.50;;;30.30;42.80;;;;;;4988157;28;20097;-81
2021/07/20 13:19:48;;;;;;;5.72;3.22;;;30.90;42.30;;;;;;4973846;28;20039;-82
2021/07/20 13:22:22;;;;;;;5.40;2.67;;;31.10;41.60;;;;;;5004231;28;20039;-83
2021/07/20 13:24:49;;;;;;;;;;;31.00;41.60;;;;;;4974201;28;20039;-84
2021/07/20 13:27:18;;;;;;;4.80;2.67;;;30.70;42.10;;;;;;5003881;28;20291;-80
2021/07/20 13:29:47;;;;;;;5.45;2.92;;;31.00;41.90;;;;;;5003367;28;20408;-79
2021/07/20 13:32:14;;;;;;;4.85;2.85;;;31.40;41.50;;;;;;4973135;28;20089;-80
2021/07/20 13:34:42;;;;;;;5.30;3.20;;;31.80;40.90;;;;;;4962589;28;20059;-79